»·PEaware :: HAL8833 PHLI-PHNL

HAL8833 :: PHLI-PHNL

FLIGHT INFORMATION

Flight Status: Arrived
Operator:
Hawaiian Airlines
More flights by this operator :: More flights under this callsign
Pilot: Cooper L. (8467)
Aircraft: CESSNA 208 CARAVAN
(C208)
More flights by this aircraft type
Origin: PHLI Lihue
United States
Destination: PHNL Honolulu Intl
United States
More flights between these airports :: More routes between these airports
Route: NAPUA V16 KEOLA
File this flight plan on PilotEdge
Remarks:
Altitude:
(Current/Filed)
9,000ft
Speed:
(Current/Filed)
160kts
Departed: 18-Dec-15 08:33 PM
Arrived: 18-Dec-15 09:31 PM
Distance/Time
Traveled:
88nm/0:58
Distance/Time
To Go:
Arrived

Flight Plot

Page will automatically refresh every two minutes.


Map Options




Map Legend


Flown Route
Filed Route
Departure Airport
Arrival Airport
Navaid (VOR, NDB)
Fix

Horizontal Profiles

Position Reports

Time Latitude Longitude Heading Altitude Ground
Speed
18-Dec-15 20:23 21.981529 -159.344070 138 158ft 0kts
18-Dec-15 20:24 21.980410 -159.344350 191 158ft 24kts
18-Dec-15 20:25 21.975548 -159.347664 221 158ft 28kts
18-Dec-15 20:26 21.973233 -159.348867 98 158ft 11kts
18-Dec-15 20:27 21.973259 -159.348654 69 158ft 0kts
18-Dec-15 20:28 21.973259 -159.348654 69 158ft 0kts
18-Dec-15 20:29 21.976968 -159.344481 43 231ft 62kts
18-Dec-15 20:30 21.979075 -159.332438 112 840ft 70kts
18-Dec-15 20:31 21.976130 -159.312303 83 1483ft 78kts
18-Dec-15 20:32 21.960301 -159.299364 197 2310ft 106kts
18-Dec-15 20:33 21.934908 -159.307249 187 3160ft 93kts
18-Dec-15 20:34 21.910975 -159.315561 176 3879ft 92kts
18-Dec-15 20:35 21.886528 -159.308473 150 4410ft 104kts
18-Dec-15 20:36 21.858243 -159.297029 152 5066ft 112kts
18-Dec-15 20:37 21.829907 -159.285812 154 5760ft 110kts
18-Dec-15 20:38 21.802322 -159.274959 155 6458ft 105kts
18-Dec-15 20:39 21.776412 -159.264782 157 7151ft 96kts
18-Dec-15 20:40 21.752837 -159.255943 160 7839ft 87kts
18-Dec-15 20:41 21.735599 -159.241180 130 8527ft 82kts
18-Dec-15 20:42 21.724235 -159.220785 131 8972ft 95kts
18-Dec-15 20:43 21.708275 -159.192761 128 8967ft 127kts
18-Dec-15 20:44 21.722493 -159.165663 355 8965ft 169kts
18-Dec-15 20:45 21.761830 -159.187214 326 8965ft 170kts
18-Dec-15 20:46 21.783551 -159.219985 227 8964ft 138kts
18-Dec-15 20:47 21.756131 -159.207423 135 8956ft 135kts
18-Dec-15 20:48 21.728343 -159.182914 154 8955ft 131kts
18-Dec-15 20:49 21.695714 -159.166294 160 8955ft 131kts
18-Dec-15 20:50 21.674012 -159.135104 129 8953ft 131kts
18-Dec-15 20:51 21.655409 -159.103083 129 8954ft 126kts
18-Dec-15 20:52 21.636996 -159.071386 129 8954ft 125kts
18-Dec-15 20:53 21.619002 -159.040252 129 8922ft 125kts
18-Dec-15 20:54 21.601091 -159.009519 129 8954ft 124kts
18-Dec-15 20:55 21.582942 -158.978341 129 8954ft 125kts
18-Dec-15 20:56 21.564607 -158.946825 129 8954ft 125kts
18-Dec-15 20:57 21.546531 -158.915764 129 8954ft 125kts
18-Dec-15 20:58 21.528228 -158.884313 129 8954ft 125kts
18-Dec-15 20:59 21.509841 -158.852742 129 8951ft 125kts
18-Dec-15 21:00 21.495536 -158.828178 130 8957ft 117kts
18-Dec-15 21:01 21.476039 -158.794886 128 8945ft 142kts
18-Dec-15 21:02 21.461561 -158.769678 130 8918ft 110kts
18-Dec-15 21:03 21.449427 -158.749128 128 8951ft 135kts
18-Dec-15 21:04 21.428884 -158.713862 128 8944ft 146kts
18-Dec-15 21:05 21.408318 -158.678528 127 8938ft 146kts
18-Dec-15 21:06 21.387428 -158.642629 127 8935ft 140kts
18-Dec-15 21:07 21.363927 -158.601894 127 8934ft 139kts
18-Dec-15 21:08 21.346498 -158.571995 127 8698ft 150kts
18-Dec-15 21:09 21.323893 -158.533350 125 8198ft 156kts
18-Dec-15 21:10 21.301107 -158.494472 125 7696ft 157kts
18-Dec-15 21:11 21.278019 -158.455245 124 7186ft 157kts
18-Dec-15 21:12 21.254888 -158.416040 123 6675ft 157kts
18-Dec-15 21:13 21.233617 -158.377559 99 6171ft 155kts
18-Dec-15 21:14 21.252879 -158.343910 59 5129ft 140kts
18-Dec-15 21:15 21.273036 -158.310158 60 3951ft 135kts
18-Dec-15 21:16 21.291354 -158.278603 59 3538ft 127kts
18-Dec-15 21:17 21.309792 -158.246798 59 3536ft 131kts
18-Dec-15 21:18 21.324978 -158.212416 87 3496ft 134kts
18-Dec-15 21:19 21.325358 -158.170216 89 3122ft 143kts
18-Dec-15 21:20 21.325336 -158.130141 89 3117ft 134kts
18-Dec-15 21:21 21.325560 -158.089184 88 2714ft 146kts
18-Dec-15 21:22 21.325416 -158.051314 88 2019ft 141kts
18-Dec-15 21:23 21.324595 -158.013827 83 1252ft 109kts
18-Dec-15 21:24 21.325007 -157.986198 88 842ft 82kts
18-Dec-15 21:25 21.324980 -157.963712 86 434ft 69kts
18-Dec-15 21:26 21.325228 -157.944535 83 75ft 59kts
18-Dec-15 21:27 21.325258 -157.933126 89 18ft 26kts
18-Dec-15 21:28 21.323937 -157.926922 96 18ft 20kts
18-Dec-15 21:29 21.323418 -157.921232 138 18ft 21kts
18-Dec-15 21:30 21.319272 -157.918730 133 18ft 15kts
18-Dec-15 21:31 21.314573 -157.922407 155 18ft 14kts
18-Dec-15 21:32 21.314034 -157.922260 142 18ft 0kts
18-Dec-15 21:33 21.314034 -157.922260 142 18ft 0kts
18-Dec-15 21:34 21.314034 -157.922260 142 18ft 0kts
18-Dec-15 21:35 21.314034 -157.922260 142 18ft 0kts
18-Dec-15 21:36 21.314034 -157.922260 142 18ft 0kts
18-Dec-15 21:37 21.314034 -157.922260 142 18ft 0kts
18-Dec-15 21:38 21.314034 -157.922260 142 18ft 0kts
18-Dec-15 21:39 21.314034 -157.922260 142 18ft 0kts

Navigation Log

Ident Type
1. PHLI Airport
2. NAPUA Fix
3. HUPUK Fix
4. GRAIL Fix
5. KEOLA Fix
6. PHNL Airport